Time;durP1;ratioP1;P1;durP2;ratioP2;P2;SDS_P1;SDS_P2;PMS_P1;PMS_P2;Temp;Humidity;BMP_temperature;BMP_pressure;BME280_temperature;BME280_humidity;BME280_pressure;Samples;Min_cycle;Max_cycle;Signal;HPM_P1;HPM_P2
2021/09/09 00:00:57;;;;;;;23.08;13.23;;;;;;;13.04;75.38;100050.84;5075900;28;20362;-49
2021/09/09 00:03:24;;;;;;;16.48;11.40;;;;;;;13.05;75.64;100052.53;5074882;28;20442;-49
2021/09/09 00:05:51;;;;;;;17.92;11.35;;;;;;;13.02;75.67;100053.50;5075809;28;20047;-49
2021/09/09 00:08:17;;;;;;;13.00;10.40;;;;;;;13.00;75.83;100055.34;5076033;28;20040;-49
2021/09/09 00:10:44;;;;;;;16.88;11.85;;;;;;;12.97;75.62;100050.16;5076010;28;20045;-49
2021/09/09 00:13:10;;;;;;;17.45;11.38;;;;;;;12.94;75.63;100052.03;5075731;28;20074;-49
2021/09/09 00:15:36;;;;;;;16.40;12.07;;;;;;;12.91;75.74;100049.50;5075667;28;20037;-49
2021/09/09 00:18:02;;;;;;;17.20;11.82;;;;;;;12.87;75.81;100046.09;5075668;28;20116;-49
2021/09/09 00:20:28;;;;;;;17.23;11.85;;;;;;;12.83;76.08;100049.72;5074748;28;20453;-49
2021/09/09 00:22:54;;;;;;;17.20;12.23;;;;;;;12.82;76.04;100042.75;5079358;28;20040;-49
2021/09/09 00:25:21;;;;;;;15.70;10.68;;;;;;;12.78;76.05;100051.63;5079537;28;20331;-49
2021/09/09 00:27:49;;;;;;;18.83;12.30;;;;;;;12.77;75.96;100049.88;5079452;28;20063;-49
2021/09/09 00:30:16;;;;;;;15.70;12.85;;;;;;;12.75;76.10;100049.94;5079785;28;20416;-49
2021/09/09 00:32:44;;;;;;;15.77;10.45;;;;;;;12.73;76.45;100046.50;5079430;28;20036;-49
2021/09/09 00:35:10;;;;;;;15.88;12.13;;;;;;;12.73;77.12;100054.38;5079654;28;20050;-49
2021/09/09 00:37:36;;;;;;;16.88;12.00;;;;;;;12.71;77.02;100050.97;5079576;28;20131;-49
2021/09/09 00:40:03;;;;;;;16.75;11.93;;;;;;;12.69;77.29;100050.13;5078667;28;20048;-49
2021/09/09 00:42:29;;;;;;;14.50;10.48;;;;;;;12.66;77.15;100047.59;5078214;28;20053;-49
2021/09/09 00:44:54;;;;;;;17.08;11.13;;;;;;;12.62;77.17;100040.72;5079150;28;20050;-49
2021/09/09 00:47:20;;;;;;;14.77;11.38;;;;;;;12.58;77.03;100042.56;5079376;28;20053;-49
2021/09/09 00:49:46;;;;;;;18.65;12.40;;;;;;;12.53;77.14;100039.22;5079079;28;20075;-49
2021/09/09 00:52:13;;;;;;;19.08;12.13;;;;;;;12.52;77.14;100044.53;5079287;28;20056;-49
2021/09/09 00:54:40;;;;;;;16.80;10.95;;;;;;;12.48;77.21;100037.63;5078976;28;20389;-49
2021/09/09 00:57:06;;;;;;;19.08;12.55;;;;;;;12.39;77.15;100023.88;5078914;28;20048;-49
2021/09/09 00:59:32;;;;;;;17.60;12.60;;;;;;;12.44;77.41;100026.34;5061442;28;20052;-49
2021/09/09 01:01:58;;;;;;;17.88;11.10;;;;;;;12.38;77.63;100021.25;5079194;28;20048;-49
2021/09/09 01:04:24;;;;;;;17.25;11.73;;;;;;;12.42;77.80;100036.06;5079176;28;20056;-49
2021/09/09 01:06:50;;;;;;;17.88;13.07;;;;;;;12.43;77.64;100029.88;5079119;28;20355;-49
2021/09/09 01:09:16;;;;;;;16.35;12.13;;;;;;;12.42;78.07;100030.81;5078729;28;20052;-49
2021/09/09 01:11:41;;;;;;;17.30;12.20;;;;;;;12.43;78.18;100034.28;5078712;28;20055;-49
2021/09/09 01:14:09;;;;;;;18.67;13.20;;;;;;;12.44;78.41;100033.38;5078864;28;20074;-49
2021/09/09 01:16:35;;;;;;;17.55;12.18;;;;;;;12.39;78.63;100029.13;5078861;28;20075;-49
2021/09/09 01:19:01;;;;;;;17.08;11.80;;;;;;;12.42;78.60;100038.69;5077996;28;20434;-49
2021/09/09 01:21:27;;;;;;;19.02;13.23;;;;;;;12.42;78.59;100037.81;5078572;28;20463;-49
2021/09/09 01:23:57;;;;;;;21.25;13.07;;;;;;;12.40;78.81;100036.06;5078786;28;20055;-49
2021/09/09 01:26:23;;;;;;;18.50;11.45;;;;;;;12.36;78.48;100033.59;5078397;28;20063;-49
2021/09/09 01:28:49;;;;;;;17.77;12.18;;;;;;;12.34;78.65;100032.78;5077830;28;20130;-49
2021/09/09 01:31:15;;;;;;;22.75;12.20;;;;;;;12.33;78.08;100031.06;5078344;28;20145;-49
2021/09/09 01:33:41;;;;;;;15.63;11.38;;;;;;;12.30;78.18;100036.41;5076399;28;20036;-49
2021/09/09 01:36:07;;;;;;;17.27;14.25;;;;;;;12.30;78.72;100031.16;5078909;28;20437;-49
2021/09/09 01:38:33;;;;;;;14.38;11.38;;;;;;;12.28;78.29;100043.44;5078177;28;20076;-49
2021/09/09 01:40:58;;;;;;;19.50;13.23;;;;;;;12.23;78.34;100040.09;5078198;28;20045;-49
2021/09/09 01:43:24;;;;;;;21.20;12.48;;;;;;;12.21;78.56;100037.50;5078426;28;20110;-49
2021/09/09 01:45:50;;;;;;;17.85;11.65;;;;;;;12.19;78.67;100034.09;5078018;28;20520;-49
2021/09/09 01:48:16;;;;;;;20.02;11.98;;;;;;;12.13;78.94;100013.25;5078365;28;20080;-49
2021/09/09 01:50:41;;;;;;;16.13;12.52;;;;;;;12.13;78.88;100021.97;5078277;28;20426;-49
2021/09/09 01:53:07;;;;;;;20.67;13.10;;;;;;;12.16;79.24;100032.41;5077352;28;20403;-49
2021/09/09 01:55:33;;;;;;;19.17;11.32;;;;;;;12.14;79.22;100028.09;5077790;28;20045;-49
2021/09/09 01:57:59;;;;;;;17.13;11.88;;;;;;;12.15;79.29;100029.78;5076945;28;20054;-49
2021/09/09 02:00:25;;;;;;;17.05;11.50;;;;;;;12.14;79.23;100026.31;5078056;28;20059;-49
2021/09/09 02:02:51;;;;;;;16.05;10.82;;;;;;;12.14;79.26;100028.94;5078026;28;20048;-49
2021/09/09 02:05:16;;;;;;;17.73;12.15;;;;;;;12.11;79.06;100034.28;5077733;28;20465;-49
2021/09/09 02:07:42;;;;;;;17.00;11.68;;;;;;;12.09;78.79;100027.34;5077926;28;20076;-49
2021/09/09 02:10:08;;;;;;;17.08;11.27;;;;;;;12.06;78.97;100033.56;5077589;28;20461;-49
2021/09/09 02:12:34;;;;;;;18.15;11.77;;;;;;;12.02;79.08;100021.41;5077551;28;20052;-49
2021/09/09 02:15:00;;;;;;;15.80;11.80;;;;;;;11.99;79.69;100031.13;5077677;28;20055;-49
2021/09/09 02:17:26;;;;;;;18.45;12.10;;;;;;;12.01;80.40;100026.72;5077413;28;20055;-49
2021/09/09 02:19:52;;;;;;;17.95;12.35;;;;;;;12.01;80.01;100026.72;5077653;28;20052;-49
2021/09/09 02:22:18;;;;;;;16.73;11.68;;;;;;;12.07;79.70;100016.03;5077632;28;20052;-49
2021/09/09 02:24:46;;;;;;;18.73;12.65;;;;;;;12.07;79.86;100018.66;5077610;28;20071;-49
2021/09/09 02:27:13;;;;;;;22.55;13.07;;;;;;;12.10;79.73;100015.97;5077512;28;20132;-49
2021/09/09 02:29:39;;;;;;;16.95;12.90;;;;;;;12.12;80.29;100015.00;5077144;28;20374;-49
2021/09/09 02:32:05;;;;;;;15.75;11.98;;;;;;;12.16;80.29;100015.78;5077423;28;20374;-49
2021/09/09 02:34:31;;;;;;;18.00;12.77;;;;;;;12.19;80.20;100017.44;5077063;28;20048;-49
2021/09/09 02:36:57;;;;;;;16.17;12.15;;;;;;;12.19;80.17;100020.06;5077366;28;20072;-49
2021/09/09 02:39:23;;;;;;;15.52;10.30;;;;;;;12.18;80.19;100020.97;5076965;28;20049;-49
2021/09/09 02:41:48;;;;;;;20.40;12.18;;;;;;;12.16;79.70;100015.78;5075920;28;20114;-49
2021/09/09 02:44:15;;;;;;;16.48;12.32;;;;;;;12.15;80.10;100006.16;5077372;28;20414;-49
2021/09/09 02:46:40;;;;;;;18.90;10.98;;;;;;;12.15;79.95;100007.06;5077148;28;20051;-49
2021/09/09 02:49:06;;;;;;;15.32;11.35;;;;;;;12.14;79.71;100017.59;5077083;28;20048;-49
2021/09/09 02:51:32;;;;;;;17.45;10.73;;;;;;;12.11;79.73;100012.41;5077030;28;20500;-49
2021/09/09 02:53:58;;;;;;;14.65;11.07;;;;;;;12.08;79.34;100015.97;5076711;28;20050;-49
2021/09/09 02:56:23;;;;;;;14.93;11.60;;;;;;;11.99;79.20;100005.75;5076981;28;20052;-49
2021/09/09 02:58:49;;;;;;;14.70;11.45;;;;;;;12.00;78.52;100010.09;5076054;28;20044;-49
2021/09/09 03:01:15;;;;;;;15.57;11.48;;;;;;;11.97;78.78;100006.69;5076561;28;20117;-49
2021/09/09 03:03:41;;;;;;;17.65;11.23;;;;;;;11.93;78.43;100011.19;5075965;28;20048;-49
2021/09/09 03:06:07;;;;;;;15.73;11.57;;;;;;;11.87;78.70;100006.09;5076758;28;20048;-49
2021/09/09 03:08:32;;;;;;;16.50;11.65;;;;;;;11.82;78.06;100007.94;5076499;28;20331;-49
2021/09/09 03:10:59;;;;;;;14.68;10.88;;;;;;;11.79;78.56;100010.63;5076498;28;20040;-49
2021/09/09 03:13:25;;;;;;;18.63;11.00;;;;;;;11.77;78.57;100007.22;5076247;28;20473;-49
2021/09/09 03:15:51;;;;;;;15.73;11.90;;;;;;;11.73;78.52;100005.56;5076431;28;20117;-49
2021/09/09 03:18:17;;;;;;;18.92;12.05;;;;;;;11.67;78.33;100014.47;5076377;28;20439;-49
2021/09/09 03:20:43;;;;;;;16.25;11.18;;;;;;;11.67;78.91;100015.31;5076243;28;20442;-49
2021/09/09 03:23:08;;;;;;;20.20;11.10;;;;;;;11.65;78.96;100013.63;5076520;28;20118;-49
2021/09/09 03:25:34;;;;;;;16.67;12.57;;;;;;;11.59;78.93;100017.28;5075671;28;20040;-49
2021/09/09 03:28:00;;;;;;;18.67;11.27;;;;;;;11.57;78.70;100012.97;5076132;28;20473;-49
2021/09/09 03:30:26;;;;;;;18.35;11.65;;;;;;;11.53;78.70;100008.69;5076172;28;20041;-49
2021/09/09 03:32:52;;;;;;;20.15;13.10;;;;;;;11.47;78.33;100017.56;5075201;28;20087;-49
2021/09/09 03:35:18;;;;;;;21.17;13.18;;;;;;;11.47;78.50;100009.72;5075205;28;20107;-49
2021/09/09 03:37:43;;;;;;;20.40;12.43;;;;;;;11.43;78.79;100010.69;5076326;28;20044;-49
2021/09/09 03:40:10;;;;;;;17.23;12.18;;;;;;;11.42;78.43;100006.34;5075452;28;20362;-49
2021/09/09 03:42:36;;;;;;;20.85;14.32;;;;;;;11.41;78.59;100009.91;5075919;28;20063;-49
2021/09/09 03:45:02;;;;;;;19.95;14.10;;;;;;;11.40;78.86;100002.91;5076010;28;20045;-49
2021/09/09 03:47:27;;;;;;;17.95;13.82;;;;;;;11.36;78.78;100003.88;5076538;28;20129;-49
2021/09/09 03:49:53;;;;;;;24.52;15.32;;;;;;;11.33;78.88;99996.09;5075946;28;20052;-49
2021/09/09 03:52:19;;;;;;;22.08;14.40;;;;;;;11.29;78.76;99990.06;5075900;28;20064;-49
2021/09/09 03:54:45;;;;;;;21.67;13.95;;;;;;;11.24;78.88;99991.94;5076122;28;20044;-49
2021/09/09 03:57:11;;;;;;;21.55;14.27;;;;;;;11.22;78.97;99989.38;5075279;28;20413;-49
2021/09/09 03:59:36;;;;;;;17.60;13.00;;;;;;;11.21;78.95;99997.25;5075247;28;20044;-49
2021/09/09 04:02:03;;;;;;;18.40;13.00;;;;;;;11.21;79.23;99989.38;5075757;28;20370;-49
2021/09/09 04:04:30;;;;;;;24.05;12.40;;;;;;;11.21;79.24;99990.28;5075822;28;20064;-49
2021/09/09 04:06:56;;;;;;;20.13;13.32;;;;;;;11.18;79.33;99994.72;5074859;28;20063;-49
2021/09/09 04:09:22;;;;;;;21.23;12.52;;;;;;;11.14;79.04;99991.28;5075798;28;20040;-49
2021/09/09 04:11:47;;;;;;;20.73;12.95;;;;;;;11.12;79.03;99989.63;5075119;28;20056;-49
2021/09/09 04:14:13;;;;;;;19.10;13.82;;;;;;;11.10;79.18;99991.44;5075572;28;20067;-49
2021/09/09 04:16:39;;;;;;;23.35;13.82;;;;;;;11.09;79.49;99985.31;5075958;28;20059;-49
2021/09/09 04:19:05;;;;;;;20.70;12.25;;;;;;;11.08;79.52;99991.47;5075941;28;20075;-49
2021/09/09 04:21:31;;;;;;;19.25;11.90;;;;;;;11.07;79.43;99996.75;5075648;28;20036;-49
2021/09/09 04:23:57;;;;;;;18.95;12.55;;;;;;;11.03;79.89;99990.72;5075596;28;20049;-49
2021/09/09 04:26:23;;;;;;;20.27;11.45;;;;;;;11.04;79.79;99991.56;5075010;28;20051;-49
2021/09/09 04:28:48;;;;;;;17.63;13.27;;;;;;;11.01;79.76;99992.50;5073953;28;20051;-49
2021/09/09 04:31:14;;;;;;;18.35;12.60;;;;;;;11.02;80.16;99995.97;5073059;28;20078;-49
2021/09/09 04:33:40;;;;;;;22.70;15.05;;;;;;;11.00;79.88;99996.03;5074457;28;20060;-49
2021/09/09 04:36:06;;;;;;;21.98;13.13;;;;;;;11.00;79.99;99996.03;5074838;28;20056;-49
2021/09/09 04:38:32;;;;;;;24.33;15.82;;;;;;;11.01;80.24;99992.50;5074545;28;20109;-49
2021/09/09 04:40:58;;;;;;;21.85;14.70;;;;;;;11.02;80.06;99988.09;5074476;28;20048;-49
2021/09/09 04:43:24;;;;;;;22.38;13.35;;;;;;;11.03;80.07;99987.22;5076227;28;20121;-49
2021/09/09 04:45:50;;;;;;;16.83;12.25;;;;;;;11.03;80.69;99985.47;5075661;28;20127;-49
2021/09/09 04:48:16;;;;;;;21.90;13.55;;;;;;;11.05;80.68;99988.94;5075431;28;20041;-49
2021/09/09 04:50:41;;;;;;;19.88;12.95;;;;;;;11.05;80.47;99986.31;5075646;28;20048;-49
2021/09/09 04:53:07;;;;;;;17.77;12.05;;;;;;;11.10;80.65;99986.19;5075629;28;20067;-49
2021/09/09 04:55:33;;;;;;;17.02;11.60;;;;;;;11.12;80.54;99981.78;5075528;28;20074;-49
2021/09/09 04:57:59;;;;;;;18.92;12.98;;;;;;;11.13;80.71;99981.72;5075601;28;20094;-49
2021/09/09 05:00:25;;;;;;;18.60;11.90;;;;;;;11.16;80.88;99973.78;5075571;28;20400;-49
2021/09/09 05:02:51;;;;;;;16.77;12.93;;;;;;;11.19;80.99;99978.09;5075528;28;20354;-49
2021/09/09 05:05:17;;;;;;;18.83;12.15;;;;;;;11.23;80.78;99983.22;5075522;28;20048;-49
2021/09/09 05:07:43;;;;;;;17.35;11.63;;;;;;;11.27;81.26;99980.50;5075703;28;20346;-49
2021/09/09 05:10:09;;;;;;;16.95;11.20;;;;;;;11.33;81.39;99972.50;5079038;28;20064;-49
2021/09/09 05:12:35;;;;;;;20.17;12.27;;;;;;;11.39;81.52;99975.81;5078998;28;20439;-49
2021/09/09 05:15:01;;;;;;;22.00;13.10;;;;;;;11.48;81.86;99972.09;5078679;28;20044;-49
2021/09/09 05:17:27;;;;;;;17.50;11.50;;;;;;;11.57;82.61;99968.38;5078603;28;20052;-49
2021/09/09 05:19:53;;;;;;;20.83;12.15;;;;;;;11.79;83.01;99968.66;5078614;28;20055;-49
2021/09/09 05:22:18;;;;;;;21.52;12.50;;;;;;;12.40;83.13;99965.16;5077712;28;20044;-49
2021/09/09 05:24:45;;;;;;;25.15;12.50;;;;;;;13.14;82.76;99964.63;5078761;28;20139;-49
2021/09/09 05:27:10;;;;;;;18.20;11.43;;;;;;;13.91;82.34;99961.09;5078493;28;20040;-49
2021/09/09 05:29:36;;;;;;;17.50;10.40;;;;;;;14.64;80.61;99957.47;5078455;28;20048;-49
2021/09/09 05:32:03;;;;;;;22.10;11.32;;;;;;;15.27;78.19;99959.31;5078685;28;20142;-49
2021/09/09 05:34:28;;;;;;;21.58;11.75;;;;;;;15.96;77.31;99945.81;5077413;28;20041;-49
2021/09/09 05:36:54;;;;;;;13.57;10.15;;;;;;;16.56;75.76;99955.31;5078608;28;20052;-50
2021/09/09 05:39:20;;;;;;;15.85;9.73;;;;;;;17.08;74.50;99949.34;5078040;28;20445;-50
2021/09/09 05:41:46;;;;;;;17.05;10.43;;;;;;;17.55;72.44;99940.78;5077924;28;20052;-50
2021/09/09 05:44:11;;;;;;;17.10;10.02;;;;;;;17.96;69.48;99938.63;5077182;28;20350;-50
2021/09/09 05:46:37;;;;;;;18.10;10.15;;;;;;;18.43;67.74;99939.66;5075487;28;20048;-50
2021/09/09 05:49:03;;;;;;;14.40;9.80;;;;;;;18.87;67.18;99942.47;5075606;28;20036;-50
2021/09/09 05:51:28;;;;;;;15.07;9.48;;;;;;;19.20;66.65;99936.16;5076660;28;20044;-50
2021/09/09 05:53:55;;;;;;;14.40;8.90;;;;;;;19.53;65.46;99929.78;5077907;28;20427;-50
2021/09/09 05:56:21;;;;;;;13.60;8.50;;;;;;;19.91;63.76;99927.47;5093790;28;20105;-50
2021/09/09 05:58:46;;;;;;;14.75;8.68;;;;;;;19.98;60.85;99931.47;5077059;28;20040;-50
2021/09/09 06:01:12;;;;;;;11.10;8.35;;;;;;;19.94;59.88;99921.97;5077784;28;20059;-50
2021/09/09 06:03:38;;;;;;;11.85;7.88;;;;;;;19.89;59.08;99933.84;5093754;28;20047;-50
2021/09/09 06:06:04;;;;;;;12.85;8.43;;;;;;;20.04;58.98;99928.44;5076911;28;20036;-50
2021/09/09 06:08:37;;;;;;;12.73;7.25;;;;;;;20.15;57.60;99918.91;5077083;28;20060;-50
2021/09/09 06:11:02;;;;;;;13.15;7.63;;;;;;;20.34;57.63;99927.44;5077995;28;20048;-50
2021/09/09 06:13:28;;;;;;;13.77;7.07;;;;;;;20.65;58.43;99923.72;5077888;28;20049;-50
2021/09/09 06:15:54;;;;;;;11.75;7.55;;;;;;;20.85;57.52;99921.56;5077516;28;20135;-50
2021/09/09 06:18:20;;;;;;;9.68;7.72;;;;;;;21.07;56.98;99916.53;5077777;28;20117;-50
2021/09/09 06:20:47;;;;;;;11.25;8.27;;;;;;;21.19;54.87;99923.69;5077314;28;20113;-50
2021/09/09 06:23:12;;;;;;;15.10;7.63;;;;;;;21.21;54.64;99928.91;5077351;28;20078;-50
2021/09/09 06:25:38;;;;;;;11.57;7.65;;;;;;;21.31;55.12;99915.81;5077648;28;20048;-50
2021/09/09 06:28:04;;;;;;;14.13;7.72;;;;;;;21.64;54.92;99913.56;5077234;28;20045;-50
2021/09/09 06:30:30;;;;;;;10.35;7.45;;;;;;;21.78;53.55;99915.25;5076593;28;20459;-50
2021/09/09 06:32:56;;;;;;;9.80;6.95;;;;;;;22.02;53.01;99912.66;5074291;28;20067;-50
2021/09/09 06:35:21;;;;;;;7.85;6.07;;;;;;;22.29;52.53;99923.19;5075690;28;20049;-50
2021/09/09 06:37:48;;;;;;;10.90;6.88;;;;;;;22.35;51.25;99920.09;5076103;28;20049;-50
2021/09/09 06:40:13;;;;;;;9.27;6.65;;;;;;;22.62;51.41;99919.06;5075349;28;20051;-50
2021/09/09 06:42:39;;;;;;;9.38;6.07;;;;;;;22.80;51.61;99919.50;5074990;28;20060;-50
2021/09/09 06:45:07;;;;;;;10.77;6.93;;;;;;;23.00;50.55;99915.38;5074379;28;20059;-50
2021/09/09 06:47:33;;;;;;;10.50;5.35;;;;;;;23.12;51.19;99910.94;5075210;28;20044;-50
2021/09/09 06:49:58;;;;;;;11.70;5.93;;;;;;;23.20;49.13;99916.56;5075176;28;20079;-50
2021/09/09 06:52:25;;;;;;;10.40;6.30;;;;;;;23.20;48.60;99920.06;5074861;28;20050;-50
2021/09/09 06:54:50;;;;;;;8.57;5.95;;;;;;;23.23;47.34;99909.16;5076361;28;20045;-50
2021/09/09 06:57:16;;;;;;;8.68;5.38;;;;;;;23.36;48.50;99914.41;5077026;28;20055;-50
2021/09/09 06:59:42;;;;;;;9.10;6.10;;;;;;;23.47;47.88;99905.59;5076709;28;20402;-50
2021/09/09 07:02:08;;;;;;;10.68;5.63;;;;;;;23.54;46.63;99922.84;5075963;28;20090;-50
2021/09/09 07:04:33;;;;;;;7.03;4.57;;;;;;;23.59;47.29;99915.31;5059746;28;20106;-50
2021/09/09 07:06:59;;;;;;;7.70;5.57;;;;;;;23.64;46.91;99914.97;5076845;28;20052;-50
2021/09/09 07:09:25;;;;;;;9.45;6.15;;;;;;;23.72;46.56;99916.13;5076807;28;20491;-50
2021/09/09 07:11:51;;;;;;;9.85;5.35;;;;;;;23.69;46.09;99911.00;5076723;28;20064;-50
2021/09/09 07:14:17;;;;;;;7.72;5.40;;;;;;;23.70;46.36;99898.50;5076403;28;20426;-50
2021/09/09 07:16:43;;;;;;;8.80;5.07;;;;;;;23.75;46.20;99921.19;5076407;28;20043;-50
2021/09/09 07:19:09;;;;;;;10.50;5.15;;;;;;;23.73;45.76;99901.78;5076315;28;20114;-50
2021/09/09 07:21:35;;;;;;;8.48;5.45;;;;;;;23.74;45.10;99908.81;5076278;28;20053;-50
2021/09/09 07:24:01;;;;;;;7.53;5.45;;;;;;;23.72;44.45;99902.75;5076284;28;20052;-50
2021/09/09 07:26:27;;;;;;;8.82;6.20;;;;;;;23.70;45.29;99911.88;5076516;28;20059;-50
2021/09/09 07:28:52;;;;;;;6.90;4.63;;;;;;;23.73;45.20;99906.28;5076249;28;20049;-50
2021/09/09 07:31:18;;;;;;;7.47;5.03;;;;;;;23.82;45.28;99910.03;5074628;28;20036;-50
2021/09/09 07:33:44;;;;;;;7.45;5.63;;;;;;;23.87;44.65;99905.19;5076114;28;20114;-50
2021/09/09 07:36:10;;;;;;;11.27;4.93;;;;;;;23.93;44.45;99904.72;5076397;28;20052;-50
2021/09/09 07:38:35;;;;;;;7.78;4.25;;;;;;;24.02;42.94;99914.69;5091984;28;20370;-50
2021/09/09 07:41:02;;;;;;;6.47;4.32;;;;;;;24.14;43.17;99913.69;5075890;28;20044;-50
2021/09/09 07:43:28;;;;;;;8.43;4.68;;;;;;;24.18;42.49;99919.63;5075806;28;20041;-50
2021/09/09 07:45:55;;;;;;;6.47;4.43;;;;;;;24.25;43.37;99912.84;5076013;28;20435;-50
2021/09/09 07:48:22;;;;;;;9.55;3.97;;;;;;;24.39;43.92;99915.25;5059030;28;20086;-50
2021/09/09 07:50:48;;;;;;;6.45;3.80;;;;;;;24.47;41.82;99922.66;5075932;28;20044;-50
2021/09/09 07:53:14;;;;;;;6.45;4.47;;;;;;;24.46;41.82;99920.97;5075339;28;20063;-50
2021/09/09 07:55:40;;;;;;;6.10;4.63;;;;;;;24.58;41.97;99920.00;5076103;28;20098;-50
2021/09/09 07:58:06;;;;;;;6.70;4.10;;;;;;;24.67;42.11;99918.41;5075290;28;20350;-50
2021/09/09 08:00:32;;;;;;;6.50;4.45;;;;;;;24.69;41.00;99922.63;5076126;28;20052;-50
2021/09/09 08:02:58;;;;;;;11.77;4.70;;;;;;;24.71;40.92;99918.00;5075816;28;20516;-50
2021/09/09 08:05:24;;;;;;;5.47;3.60;;;;;;;24.76;40.42;99924.81;5076119;28;20044;-50
2021/09/09 08:07:50;;;;;;;8.05;4.32;;;;;;;24.80;40.07;99921.75;5076066;28;20068;-50
2021/09/09 08:10:17;;;;;;;7.15;4.60;;;;;;;24.84;40.27;99917.84;5075778;28;20107;-50
2021/09/09 08:12:44;;;;;;;6.65;4.40;;;;;;;24.91;41.03;99916.34;5075793;28;20041;-50
2021/09/09 08:15:10;;;;;;;5.93;4.20;;;;;;;25.06;41.02;99914.22;5091704;28;20044;-50
2021/09/09 08:17:36;;;;;;;7.05;4.03;;;;;;;25.16;40.16;99919.72;5074881;28;20047;-51
2021/09/09 08:20:04;;;;;;;9.45;4.88;;;;;;;25.23;39.32;99923.56;5075957;28;20049;-50
2021/09/09 08:22:30;;;;;;;7.80;3.95;;;;;;;25.13;39.46;99915.44;5074798;28;20357;-50
2021/09/09 08:24:55;;;;;;;5.57;3.85;;;;;;;25.20;38.64;99925.66;5075916;28;20049;-50
2021/09/09 08:27:22;;;;;;;4.68;3.92;;;;;;;25.25;39.28;99915.38;5075874;28;20068;-50
2021/09/09 08:29:48;;;;;;;5.63;4.18;;;;;;;25.33;39.17;99924.47;5075659;28;20434;-50
2021/09/09 08:32:13;;;;;;;6.63;3.75;;;;;;;25.37;38.41;99922.38;5075830;28;20048;-51
2021/09/09 08:34:39;;;;;;;8.75;4.35;;;;;;;25.20;39.00;99886.31;5075539;28;20113;-50
2021/09/09 08:37:05;;;;;;;7.25;4.35;;;;;;;25.42;39.12;99921.03;5075561;28;20049;-50
2021/09/09 08:39:31;;;;;;;8.70;4.28;;;;;;;25.48;39.59;99921.47;5075440;28;20060;-50
2021/09/09 08:41:57;;;;;;;12.05;4.00;;;;;;;25.52;38.91;99921.09;5074336;28;20048;-50
2021/09/09 08:44:23;;;;;;;5.25;3.70;;;;;;;25.67;40.33;99921.59;5078461;28;20102;-50
2021/09/09 08:46:52;;;;;;;12.23;4.55;;;;;;;25.82;38.93;99920.28;5095127;28;20055;-50
2021/09/09 08:49:25;;;;;;;4.63;3.95;;;;;;;25.94;39.04;99914.88;5078362;28;20067;-50
2021/09/09 08:51:52;;;;;;;7.15;4.35;;;;;;;25.88;38.55;99910.88;5078170;28;20123;-50
2021/09/09 08:54:17;;;;;;;9.60;4.70;;;;;;;25.92;39.13;99906.94;5079277;28;20041;-50
2021/09/09 08:56:44;;;;;;;6.75;4.10;;;;;;;25.99;38.49;99908.09;5094984;28;20063;-50
2021/09/09 08:59:09;;;;;;;8.77;5.00;;;;;;;26.06;38.27;99911.06;5078202;28;20123;-50
2021/09/09 09:01:35;;;;;;;7.78;4.00;;;;;;;26.08;37.82;99907.28;5079002;28;20098;-50
2021/09/09 09:04:06;;;;;;;5.72;4.22;;;;;;;26.04;37.73;99900.50;5078921;28;20072;-50
2021/09/09 09:06:34;;;;;;;9.38;3.80;;;;;;;26.15;38.38;99899.53;5079167;28;20105;-50
2021/09/09 09:09:08;;;;;;;9.23;4.28;;;;;;;26.13;37.28;99896.16;5079919;28;20056;-50
2021/09/09 09:11:39;;;;;;;6.90;4.20;;;;;;;26.11;36.97;99893.59;5078170;28;20048;-50
2021/09/09 09:14:09;;;;;;;6.22;4.68;;;;;;;26.09;37.78;99894.72;5077974;28;20055;-51
2021/09/09 09:16:36;;;;;;;5.10;3.58;;;;;;;26.10;37.53;99889.22;5077851;28;20480;-50
2021/09/09 09:19:02;;;;;;;9.10;4.18;;;;;;;26.21;37.06;99893.63;5077950;28;20044;-50
2021/09/09 09:21:30;;;;;;;7.50;3.95;;;;;;;26.22;37.60;99883.75;5078570;28;20127;-50
2021/09/09 09:23:58;;;;;;;8.32;3.97;;;;;;;26.34;37.52;99885.31;5078600;28;20064;-51
2021/09/09 09:26:23;;;;;;;9.77;4.97;;;;;;;26.42;37.22;99887.31;5077694;28;20041;-50
2021/09/09 09:28:51;;;;;;;8.85;4.43;;;;;;;26.48;37.41;99887.63;5078535;28;20453;-50
2021/09/09 09:31:26;;;;;;;5.63;3.97;;;;;;;26.61;36.99;99881.16;5061040;28;20044;-50
2021/09/09 09:33:56;;;;;;;4.78;3.95;;;;;;;26.62;37.46;99889.09;5078917;28;20059;-50
2021/09/09 09:36:30;;;;;;;6.15;3.80;;;;;;;26.72;37.38;99879.22;5078411;28;20373;-50
2021/09/09 09:38:56;;;;;;;6.13;3.90;;;;;;;26.74;36.62;99874.53;5078338;28;20041;-50
2021/09/09 09:41:24;;;;;;;4.97;3.63;;;;;;;26.82;36.54;99876.53;5093901;28;20454;-50
2021/09/09 09:43:54;;;;;;;6.07;3.97;;;;;;;26.87;35.33;99871.56;5078491;28;20335;-50
2021/09/09 09:46:24;;;;;;;6.82;3.63;;;;;;;27.01;35.85;99875.69;5077784;28;20048;-50
2021/09/09 09:48:50;;;;;;;9.43;4.35;;;;;;;27.08;35.30;99863.38;5078426;28;20064;-50
2021/09/09 09:51:25;;;;;;;5.38;3.60;;;;;;;27.19;36.55;99867.75;5078317;28;20052;-51
2021/09/09 09:54:15;;;;;;;6.32;3.70;;;;;;;27.23;33.98;99864.66;5076873;28;20097;-50
2021/09/09 09:56:42;;;;;;;7.28;3.67;;;;;;;27.30;34.72;99859.56;5078273;28;20327;-50
2021/09/09 09:59:08;;;;;;;7.32;3.53;;;;;;;27.30;34.38;99858.69;5077856;28;20126;-50
2021/09/09 10:01:34;;;;;;;6.25;3.92;;;;;;;27.27;33.88;99852.63;5078141;28;20068;-50
2021/09/09 10:04:02;;;;;;;7.38;3.83;;;;;;;27.31;34.70;99855.88;5076910;28;20075;-50
2021/09/09 10:06:29;;;;;;;5.65;3.10;;;;;;;27.35;34.77;99856.41;5077829;28;20041;-50
2021/09/09 10:08:54;;;;;;;5.03;3.20;;;;;;;27.43;33.74;99859.22;5060543;28;20331;-50
2021/09/09 10:11:20;;;;;;;4.20;3.60;;;;;;;27.37;33.79;99855.28;5077103;28;20137;-50
2021/09/09 10:13:46;;;;;;;8.95;3.97;;;;;;;27.39;33.87;99839.84;5077018;28;20491;-51
2021/09/09 10:16:15;;;;;;;4.57;3.03;;;;;;;27.41;33.67;99853.16;5093767;28;20055;-50
2021/09/09 10:18:42;;;;;;;7.38;3.10;;;;;;;27.39;33.77;99841.69;5076963;28;20068;-51
2021/09/09 10:21:08;;;;;;;8.82;4.68;;;;;;;27.39;33.85;99837.16;5076593;28;20044;-50
2021/09/09 10:23:34;;;;;;;9.13;6.43;;;;;;;27.40;34.76;99836.19;5093227;28;20053;-50
2021/09/09 10:26:02;;;;;;;9.35;3.63;;;;;;;27.48;33.92;99852.41;5076626;28;20458;-50
2021/09/09 10:28:33;;;;;;;5.75;3.50;;;;;;;27.58;33.55;99838.94;5077369;28;20465;-50
2021/09/09 10:31:01;;;;;;;5.97;3.55;;;;;;;27.62;34.34;99840.34;5077243;28;20048;-50
2021/09/09 10:33:28;;;;;;;5.95;3.85;;;;;;;27.70;34.49;99836.94;5075450;28;20135;-50
2021/09/09 10:35:54;;;;;;;5.45;3.58;;;;;;;27.73;33.30;99834.78;5075272;28;20051;-50
2021/09/09 10:38:28;;;;;;;5.95;3.08;;;;;;;27.76;32.83;99836.34;5075207;28;20041;-50
2021/09/09 10:40:54;;;;;;;5.05;3.28;;;;;;;27.70;33.09;99827.00;5074974;28;20040;-50
2021/09/09 10:43:22;;;;;;;5.90;3.50;;;;;;;27.83;32.75;99836.63;5091275;28;20059;-51
2021/09/09 10:45:48;;;;;;;7.35;3.53;;;;;;;27.82;33.50;99833.09;5075288;28;20110;-50
2021/09/09 10:48:14;;;;;;;6.38;3.50;;;;;;;27.84;33.66;99839.16;5090908;28;20044;-49
2021/09/09 10:50:40;;;;;;;5.75;3.75;;;;;;;27.90;33.52;99825.09;5074993;28;20041;-50
2021/09/09 10:53:09;;;;;;;6.85;3.70;;;;;;;27.89;33.46;99830.66;5074883;28;20040;-50
2021/09/09 10:55:37;;;;;;;6.18;3.20;;;;;;;27.93;33.39;99827.50;5075058;28;20044;-51
2021/09/09 10:58:12;;;;;;;6.50;3.42;;;;;;;28.04;33.49;99825.59;5074781;28;20045;-50
2021/09/09 11:01:07;;;;;;;6.70;3.80;;;;;;;27.99;32.90;99836.00;5074877;28;20041;-50
2021/09/09 11:03:33;;;;;;;10.98;3.63;;;;;;;28.04;33.43;99822.91;5076583;28;20059;-51
2021/09/09 11:06:00;;;;;;;4.63;3.40;;;;;;;28.05;32.94;99824.63;5076596;28;20048;-51
2021/09/09 11:08:27;;;;;;;6.03;3.25;;;;;;;28.02;32.92;99806.94;5076586;28;20036;-50
2021/09/09 11:10:53;;;;;;;6.30;3.92;;;;;;;28.07;33.46;99815.38;5075672;28;20052;-50
2021/09/09 11:13:23;;;;;;;5.28;3.28;;;;;;;28.13;33.05;99813.94;5076742;28;20144;-50
2021/09/09 11:15:49;;;;;;;4.90;3.15;;;;;;;28.11;33.01;99815.91;5076671;28;20125;-51
2021/09/09 11:18:23;;;;;;;14.35;3.65;;;;;;;28.09;31.94;99810.69;5076356;28;20478;-50